Time;durP1;ratioP1;P1;durP2;ratioP2;P2;SDS_P1;SDS_P2;PMS_P1;PMS_P2;Temp;Humidity;BMP_temperature;BMP_pressure;BME280_temperature;BME280_humidity;BME280_pressure;Samples;Min_cycle;Max_cycle;Signal;HPM_P1;HPM_P2
2023/05/12 00:02:10;;;;;;;6.70;3.30;;;;;;;10.75;79.17;95415.22;4956533;28;20224;-79
2023/05/12 00:04:35;;;;;;;6.23;3.40;;;;;;;10.60;79.39;95421.53;4982692;28;20277;-80
2023/05/12 00:07:02;;;;;;;5.13;3.20;;;;;;;10.50;79.93;95426.25;4958510;28;20230;-78
2023/05/12 00:09:28;;;;;;;5.00;3.07;;;;;;;10.34;80.62;95421.28;4957590;28;20243;-78
2023/05/12 00:11:53;;;;;;;7.07;3.47;;;;;;;10.33;80.33;95417.84;4954099;28;20231;-80
2023/05/12 00:14:19;;;;;;;5.50;3.20;;;;;;;10.35;80.18;95409.78;4944377;28;20306;-78
2023/05/12 00:16:50;;;;;;;5.30;3.30;;;;;;;10.55;80.14;95411.63;4956832;28;20310;-78
2023/05/12 00:19:15;;;;;;;6.10;3.20;;;;;;;10.40;79.93;95420.53;4966839;28;21091;-78
2023/05/12 00:21:42;;;;;;;6.13;3.40;;;;;;;10.53;80.16;95413.59;4959938;28;20243;-79
2023/05/12 00:24:07;;;;;;;6.40;3.20;;;;;;;10.41;80.16;95419.53;4965736;28;21230;-77
2023/05/12 00:26:33;;;;;;;5.93;3.00;;;;;;;10.42;80.35;95415.91;4966481;28;20235;-78
2023/05/12 00:28:58;;;;;;;4.43;2.77;;;;;;;10.53;79.34;95415.44;4971993;28;20628;-78
2023/05/12 00:31:24;;;;;;;5.93;3.10;;;;;;;10.56;79.75;95417.66;4960908;28;20241;-77
2023/05/12 00:33:49;;;;;;;5.20;3.00;;;;;;;10.49;79.43;95416.78;4974923;28;20236;-78
2023/05/12 00:36:15;;;;;;;4.30;2.80;;;;;;;10.39;79.59;95427.56;4941954;28;20243;-78
2023/05/12 00:38:41;;;;;;;5.70;2.97;;;;;;;10.44;80.18;95425.19;4958461;28;20246;-78
2023/05/12 00:41:06;;;;;;;4.70;2.90;;;;;;;10.57;80.42;95419.28;4982419;28;20263;-77
2023/05/12 00:43:32;;;;;;;5.87;2.90;;;;;;;10.65;80.56;95427.81;4963364;28;20235;-78
2023/05/12 00:45:58;;;;;;;6.33;3.03;;;;;;;10.52;80.83;95425.09;4972991;28;20238;-78
2023/05/12 00:48:24;;;;;;;4.37;2.93;;;;;;;10.53;82.05;95426.69;4956924;28;20247;-78
2023/05/12 00:50:50;;;;;;;4.87;3.17;;;;;;;10.37;82.82;95421.69;4944176;28;20360;-78
2023/05/12 00:53:15;;;;;;;6.03;2.90;;;;;;;10.24;82.74;95426.00;4952350;28;20240;-77
2023/05/12 00:55:41;;;;;;;7.13;3.37;;;;;;;10.39;84.34;95432.78;4972280;28;20620;-77
2023/05/12 00:58:06;;;;;;;5.67;3.10;;;;;;;10.37;84.84;95423.50;4958234;28;20243;-78
2023/05/12 01:00:32;;;;;;;4.97;3.40;;;;;;;10.41;85.67;95435.25;4979949;28;20239;-78
2023/05/12 01:02:57;;;;;;;5.80;3.10;;;;;;;10.30;86.45;95440.94;4977236;28;20228;-78
2023/05/12 01:05:42;;;;;;;4.77;2.97;;;;;;;10.15;86.38;95436.56;4972864;28;20235;-77
2023/05/12 01:08:07;;;;;;;6.03;3.17;;;;;;;10.20;88.16;95436.00;4957447;28;20334;-78
2023/05/12 01:10:33;;;;;;;6.53;3.20;;;;;;;10.24;88.34;95439.88;4981662;28;20272;-77
2023/05/12 01:12:58;;;;;;;5.60;3.30;;;;;;;10.18;88.17;95440.59;4993211;28;20288;-77
2023/05/12 01:15:23;;;;;;;5.10;3.40;;;;;;;9.99;90.11;95438.53;5003814;28;20237;-77
2023/05/12 01:17:54;;;;;;;5.00;3.30;;;;;;;9.81;90.12;95443.34;5003836;28;20226;-77
2023/05/12 01:20:21;;;;;;;6.13;3.50;;;;;;;9.85;90.80;95444.59;4971702;28;20336;-77
2023/05/12 01:22:47;;;;;;;9.80;3.43;;;;;;;9.75;91.64;95441.44;4981472;28;20226;-78
2023/05/12 01:25:12;;;;;;;6.13;3.47;;;;;;;9.73;93.26;95430.38;4980966;28;20726;-77
2023/05/12 01:27:38;;;;;;;7.90;3.60;;;;;;;9.57;94.97;95447.06;4987632;28;20724;-78
2023/05/12 01:30:04;;;;;;;5.93;3.50;;;;;;;9.59;95.92;95444.25;4985860;28;20226;-78
2023/05/12 01:32:30;;;;;;;7.50;3.53;;;;;;;9.61;96.31;95442.28;4980766;28;20235;-78
2023/05/12 01:34:55;;;;;;;6.97;3.50;;;;;;;9.31;95.64;95444.06;4987508;28;20588;-78
2023/05/12 01:37:22;;;;;;;5.80;3.43;;;;;;;9.44;96.17;95439.03;4990808;28;20226;-76
2023/05/12 01:39:48;;;;;;;6.60;3.80;;;;;;;9.16;97.65;95433.59;4984554;28;20612;-78
2023/05/12 01:42:13;;;;;;;7.67;3.60;;;;;;;9.23;97.32;95431.91;4982905;28;20230;-77
2023/05/12 01:44:39;;;;;;;6.30;3.53;;;;;;;9.16;98.14;95435.41;4985135;28;20257;-78
2023/05/12 01:47:04;;;;;;;6.27;3.60;;;;;;;9.14;99.09;95440.81;4991904;28;20237;-78
2023/05/12 01:49:30;;;;;;;5.07;3.53;;;;;;;9.13;99.01;95443.56;4984147;28;20385;-78
2023/05/12 01:51:55;;;;;;;5.00;3.77;;;;;;;9.09;99.62;95437.91;4978960;28;20746;-78
2023/05/12 01:54:20;;;;;;;7.00;3.80;;;;;;;9.14;99.67;95440.81;4971437;28;20237;-78
2023/05/12 01:56:46;;;;;;;6.30;3.83;;;;;;;9.22;99.60;95432.88;5012709;28;20625;-78
2023/05/12 01:59:11;;;;;;;7.20;4.00;;;;;;;9.20;98.69;95436.66;4978388;28;20652;-77
2023/05/12 02:01:37;;;;;;;7.23;3.93;;;;;;;9.24;99.69;95430.09;4980890;28;20241;-77
2023/05/12 02:04:03;;;;;;;7.33;4.60;;;;;;;9.25;99.83;95434.31;4990827;28;20238;-76
2023/05/12 02:06:29;;;;;;;8.70;5.00;;;;;;;9.09;100.00;95437.91;4987294;28;20311;-76
2023/05/12 02:08:54;;;;;;;13.20;4.70;;;;;;;9.02;100.00;95433.56;4958288;28;20323;-77
2023/05/12 02:11:20;;;;;;;8.60;4.97;;;;;;;9.07;100.00;95433.84;4966564;28;20868;-77
2023/05/12 02:13:46;;;;;;;8.37;5.00;;;;;;;8.91;100.00;95440.03;4970134;28;21006;-78
2023/05/12 02:16:11;;;;;;;7.73;4.17;;;;;;;8.78;100.00;95439.81;4987272;28;20229;-77
2023/05/12 02:18:37;;;;;;;7.03;4.10;;;;;;;8.79;100.00;95436.19;4982100;28;20218;-78
2023/05/12 02:21:02;;;;;;;6.50;4.13;;;;;;;8.88;100.00;95436.97;4989105;28;20226;-77
2023/05/12 02:23:27;;;;;;;6.33;3.77;;;;;;;8.66;100.00;95436.00;4994173;28;20738;-78
2023/05/12 02:25:53;;;;;;;7.63;3.87;;;;;;;8.61;100.00;95435.72;4996018;28;20218;-78
2023/05/12 02:28:18;;;;;;;7.03;3.70;;;;;;;8.46;100.00;95429.59;4991801;28;20229;-77
2023/05/12 02:30:48;;;;;;;5.10;3.40;;;;;;;8.29;100.00;95428.13;4988684;28;20230;-77
2023/05/12 02:33:17;;;;;;;6.60;3.43;;;;;;;8.29;100.00;95434.13;4991161;28;20234;-78
2023/05/12 02:35:43;;;;;;;6.50;3.70;;;;;;;8.56;100.00;95428.41;4973590;28;20250;-78
2023/05/12 02:38:09;;;;;;;7.17;3.77;;;;;;;8.48;100.00;95438.06;4988558;28;20720;-78
2023/05/12 02:40:34;;;;;;;8.00;3.80;;;;;;;8.30;100.00;95433.16;4966061;28;20223;-78
2023/05/12 02:43:00;;;;;;;6.47;3.70;;;;;;;8.40;100.00;95430.31;4982406;28;20233;-78
2023/05/12 02:45:25;;;;;;;6.67;4.07;;;;;;;8.33;100.00;95435.41;4963720;28;20234;-78
2023/05/12 02:47:51;;;;;;;6.70;3.73;;;;;;;8.27;100.00;95435.28;4967306;28;20217;-78
2023/05/12 02:50:16;;;;;;;7.90;4.37;;;;;;;8.39;100.00;95434.72;4983291;28;20253;-76
2023/05/12 02:52:42;;;;;;;7.63;4.37;;;;;;;8.44;100.00;95437.63;4995659;28;20233;-77
2023/05/12 02:55:08;;;;;;;6.87;4.30;;;;;;;8.49;100.00;95429.28;5004767;28;20234;-77
2023/05/12 02:57:33;;;;;;;8.00;4.40;;;;;;;8.22;100.00;95427.13;4983916;28;20230;-78
2023/05/12 03:00:04;;;;;;;8.00;4.80;;;;;;;8.22;100.00;95417.53;4993305;28;20757;-79
2023/05/12 03:02:30;;;;;;;9.13;4.93;;;;;;;8.39;100.00;95428.69;4990520;28;20231;-79
2023/05/12 03:04:55;;;;;;;9.03;5.33;;;;;;;8.30;100.00;95434.94;4985139;28;20854;-78
2023/05/12 03:07:21;;;;;;;13.97;4.80;;;;;;;8.25;100.00;95437.22;4982672;28;20223;-78
2023/05/12 03:09:47;;;;;;;8.73;5.20;;;;;;;8.24;100.00;95427.78;4982167;28;20235;-78
2023/05/12 03:12:12;;;;;;;9.63;5.17;;;;;;;8.32;100.00;95438.19;4972147;28;20356;-79
2023/05/12 03:14:37;;;;;;;9.47;5.60;;;;;;;8.31;100.00;95431.38;4976137;28;20239;-78
2023/05/12 03:17:03;;;;;;;9.83;5.43;;;;;;;8.17;100.00;95434.69;4957439;28;20282;-79
2023/05/12 03:19:28;;;;;;;9.97;5.60;;;;;;;8.43;100.00;95441.19;4942838;28;20243;-79
2023/05/12 03:21:54;;;;;;;12.40;5.90;;;;;;;8.29;100.00;95438.56;4942710;28;20228;-77
2023/05/12 03:24:20;;;;;;;11.93;5.70;;;;;;;8.32;100.00;95436.41;4966441;28;20239;-78
2023/05/12 03:26:45;;;;;;;9.63;5.50;;;;;;;8.28;100.00;95444.75;4954999;28;20264;-78
2023/05/12 03:29:11;;;;;;;11.60;6.07;;;;;;;8.43;100.00;95437.81;4970284;28;20239;-77
2023/05/12 03:31:36;;;;;;;9.20;5.60;;;;;;;8.33;100.00;95442.44;4975089;28;20223;-78
2023/05/12 03:34:02;;;;;;;13.23;5.90;;;;;;;8.17;100.00;95439.91;4974034;28;20250;-78
2023/05/12 03:36:27;;;;;;;9.63;5.97;;;;;;;8.32;100.00;95441.59;4975574;28;20795;-78
2023/05/12 03:38:52;;;;;;;10.73;6.10;;;;;;;8.28;100.00;95444.75;4976225;28;20721;-77
2023/05/12 03:41:18;;;;;;;10.53;5.90;;;;;;;8.19;100.00;95449.16;4969764;28;20232;-78
2023/05/12 03:43:43;;;;;;;10.93;6.00;;;;;;;8.29;100.00;95447.16;4966441;28;20262;-79
2023/05/12 03:46:09;;;;;;;11.43;5.97;;;;;;;8.26;100.00;95449.28;4966019;28;20759;-77
2023/05/12 03:48:34;;;;;;;13.40;6.27;;;;;;;8.45;100.00;95448.88;4957946;28;20633;-78
2023/05/12 03:51:00;;;;;;;10.50;6.17;;;;;;;8.31;100.00;95449.63;4966805;28;20243;-79
2023/05/12 03:53:25;;;;;;;9.70;6.03;;;;;;;8.42;100.00;95452.63;4957300;28;20317;-80
2023/05/12 03:55:51;;;;;;;11.20;6.20;;;;;;;8.60;100.00;95441.91;4978422;28;20228;-78
2023/05/12 03:58:16;;;;;;;10.50;5.60;;;;;;;8.49;100.00;95455.34;4958639;28;20238;-78
2023/05/12 04:00:42;;;;;;;13.47;6.10;;;;;;;8.40;100.00;95456.41;4959779;28;20232;-77
2023/05/12 04:03:07;;;;;;;9.97;5.70;;;;;;;8.43;100.00;95461.28;4984102;28;20294;-78
2023/05/12 04:05:33;;;;;;;9.73;5.80;;;;;;;8.26;100.00;95452.75;4958554;28;20289;-77
2023/05/12 04:07:58;;;;;;;11.97;6.27;;;;;;;8.27;100.00;95458.75;4942770;28;20246;-77
2023/05/12 04:10:23;;;;;;;13.33;5.60;;;;;;;8.24;100.00;95465.09;4981115;28;20218;-78
2023/05/12 04:12:49;;;;;;;9.60;5.70;;;;;;;8.32;100.00;95465.09;4988261;28;20609;-77
2023/05/12 04:15:14;;;;;;;12.53;5.90;;;;;;;8.66;100.00;95467.31;5004341;28;20748;-78
2023/05/12 04:17:40;;;;;;;10.30;6.10;;;;;;;8.49;100.00;95468.41;4982473;28;20291;-77
2023/05/12 04:20:06;;;;;;;8.77;5.93;;;;;;;8.39;100.00;95465.19;4987852;28;20226;-78
2023/05/12 04:22:32;;;;;;;8.83;5.50;;;;;;;8.55;100.00;95465.91;5005799;28;20235;-78
2023/05/12 04:24:57;;;;;;;8.70;5.80;;;;;;;8.64;100.00;95467.50;4997943;28;20254;-79
2023/05/12 04:27:23;;;;;;;11.47;5.70;;;;;;;8.77;100.00;95472.94;5016427;28;20234;-78
2023/05/12 04:29:48;;;;;;;11.07;5.57;;;;;;;8.68;100.00;95467.94;4974844;28;20234;-79
2023/05/12 04:32:14;;;;;;;11.13;5.40;;;;;;;8.83;100.00;95463.59;5018284;28;20246;-78
2023/05/12 04:34:40;;;;;;;9.97;5.80;;;;;;;8.75;100.00;95472.28;4989338;28;20726;-78
2023/05/12 04:37:05;;;;;;;8.60;5.20;;;;;;;8.90;100.00;95463.69;5006171;28;20226;-77
2023/05/12 04:39:31;;;;;;;9.33;5.50;;;;;;;8.90;100.00;95466.31;4999549;28;20231;-79
2023/05/12 04:41:56;;;;;;;10.40;5.73;;;;;;;8.65;100.00;95460.44;5017134;28;20227;-79
2023/05/12 04:44:22;;;;;;;8.67;5.40;;;;;;;8.77;100.00;95465.09;5004051;28;20257;-77
2023/05/12 04:46:49;;;;;;;10.57;5.63;;;;;;;8.68;100.00;95466.16;4998878;28;20229;-78
2023/05/12 04:49:14;;;;;;;9.90;5.70;;;;;;;8.96;100.00;95470.81;4987788;28;20230;-79
2023/05/12 04:51:41;;;;;;;14.77;6.00;;;;;;;9.00;100.00;95465.09;4978364;28;20254;-79
2023/05/12 04:54:10;;;;;;;10.17;5.70;;;;;;;8.91;100.00;95465.34;4968177;28;20226;-78
2023/05/12 04:56:36;;;;;;;11.37;5.87;;;;;;;8.92;100.00;95462.53;4995707;28;20382;-78
2023/05/12 04:59:01;;;;;;;11.73;5.83;;;;;;;8.82;100.00;95464.56;4975067;28;20238;-78
2023/05/12 05:01:27;;;;;;;8.77;5.43;;;;;;;8.76;100.00;95467.91;5001635;28;20233;-79
2023/05/12 05:03:52;;;;;;;10.23;5.90;;;;;;;8.94;100.00;95472.78;4988390;28;20317;-77
2023/05/12 05:06:18;;;;;;;10.43;5.57;;;;;;;8.64;100.00;95474.50;4995259;28;20245;-77
2023/05/12 05:08:43;;;;;;;9.63;5.60;;;;;;;8.78;100.00;95471.94;4989761;28;20234;-79
2023/05/12 05:11:09;;;;;;;10.47;6.10;;;;;;;8.94;100.00;95471.00;4965617;28;20260;-78
2023/05/12 05:13:34;;;;;;;10.27;6.20;;;;;;;9.04;100.00;95473.38;4988516;28;20312;-78
2023/05/12 05:16:00;;;;;;;9.77;6.03;;;;;;;9.08;100.00;95470.22;4966500;28;20225;-78
2023/05/12 05:18:26;;;;;;;10.73;6.07;;;;;;;9.14;100.00;95477.38;5004984;28;20245;-78
2023/05/12 05:20:51;;;;;;;9.37;5.50;;;;;;;9.00;100.00;95474.72;5003494;28;20265;-78
2023/05/12 05:23:17;;;;;;;9.00;5.57;;;;;;;9.06;100.00;95474.00;4980054;28;20739;-77
2023/05/12 05:25:43;;;;;;;10.63;5.63;;;;;;;8.80;100.00;95480.41;5007642;28;20226;-77
2023/05/12 05:28:08;;;;;;;9.63;5.40;;;;;;;8.95;100.00;95482.25;4969189;28;20230;-78
2023/05/12 05:30:34;;;;;;;10.27;5.43;;;;;;;8.75;100.00;95479.31;4963353;28;20280;-77
2023/05/12 05:32:59;;;;;;;10.17;5.50;;;;;;;8.94;100.00;95483.22;5011385;28;20242;-73
2023/05/12 05:35:25;;;;;;;10.13;5.90;;;;;;;9.04;100.00;95483.81;4981656;28;20405;-77
2023/05/12 05:37:52;;;;;;;10.70;5.50;;;;;;;8.97;100.00;95485.50;4999252;28;20227;-77
2023/05/12 05:40:20;;;;;;;11.27;5.87;;;;;;;8.78;100.00;95490.22;4981429;28;20227;-77
2023/05/12 05:42:46;;;;;;;9.27;5.67;;;;;;;8.87;100.00;95485.75;4980233;28;20230;-78
2023/05/12 05:45:11;;;;;;;8.50;5.50;;;;;;;9.08;100.00;95487.69;4998354;28;20234;-78
2023/05/12 05:47:37;;;;;;;9.87;5.73;;;;;;;9.07;100.00;95492.13;4977316;28;20297;-77
2023/05/12 05:50:06;;;;;;;9.53;5.87;;;;;;;9.01;100.00;95482.34;5004103;28;20620;-75
2023/05/12 05:52:32;;;;;;;9.07;5.53;;;;;;;8.88;100.00;95484.75;4978793;28;20613;-77
2023/05/12 05:54:57;;;;;;;12.57;6.00;;;;;;;9.03;100.00;95493.44;5008416;28;20238;-76
2023/05/12 05:57:23;;;;;;;11.27;5.57;;;;;;;9.12;100.00;95487.16;5008164;28;20242;-76
2023/05/12 05:59:48;;;;;;;11.27;5.83;;;;;;;9.13;100.00;95488.78;5010679;28;20242;-77
2023/05/12 06:02:14;;;;;;;10.43;5.40;;;;;;;9.04;100.00;95495.06;5006530;28;20229;-76
2023/05/12 06:04:39;;;;;;;10.53;5.90;;;;;;;9.12;100.00;95489.75;4991805;28;20241;-76
2023/05/12 06:07:05;;;;;;;10.67;5.67;;;;;;;9.14;100.00;95492.22;5003195;28;20233;-76
2023/05/12 06:09:31;;;;;;;10.70;6.07;;;;;;;9.31;99.44;95493.69;4980426;28;20230;-77
2023/05/12 06:11:56;;;;;;;9.80;5.63;;;;;;;9.15;100.00;95502.47;4992815;28;20749;-76
2023/05/12 06:14:22;;;;;;;10.50;5.67;;;;;;;9.14;100.00;95495.66;4989941;28;20317;-79
2023/05/12 06:16:47;;;;;;;10.80;5.83;;;;;;;8.94;99.48;95497.09;4980969;28;20218;-77
2023/05/12 06:19:13;;;;;;;14.30;5.93;;;;;;;9.12;99.96;95502.81;5011037;28;20234;-77
2023/05/12 06:21:38;;;;;;;13.27;5.80;;;;;;;9.36;100.00;95502.59;4996365;28;20226;-78
2023/05/12 06:24:04;;;;;;;10.30;6.27;;;;;;;9.22;99.07;95498.16;4982315;28;20225;-77
2023/05/12 06:26:29;;;;;;;13.93;6.10;;;;;;;9.31;98.67;95509.38;4982151;28;20265;-76
2023/05/12 06:28:55;;;;;;;10.80;6.00;;;;;;;9.24;98.62;95509.25;5009966;28;20622;-77
2023/05/12 06:31:20;;;;;;;14.07;6.40;;;;;;;9.28;99.15;95504.50;4991775;28;20727;-76
2023/05/12 06:33:46;;;;;;;14.43;6.40;;;;;;;9.43;97.36;95507.97;4979292;28;20235;-77
2023/05/12 06:36:11;;;;;;;12.60;6.00;;;;;;;9.45;97.67;95505.97;5013072;28;20944;-78
2023/05/12 06:38:37;;;;;;;10.57;5.73;;;;;;;9.48;96.90;95513.47;4997244;28;20259;-79
2023/05/12 06:41:02;;;;;;;11.50;5.93;;;;;;;9.50;96.76;95517.50;4988664;28;20242;-79
2023/05/12 06:43:28;;;;;;;9.10;5.97;;;;;;;9.56;96.16;95523.00;5005226;28;20642;-80
2023/05/12 06:45:55;;;;;;;10.30;5.87;;;;;;;9.54;96.50;95519.75;4963830;28;20262;-79
2023/05/12 06:48:21;;;;;;;10.53;5.47;;;;;;;9.51;96.48;95515.69;4975820;28;20682;-78
2023/05/12 06:50:47;;;;;;;12.07;5.43;;;;;;;9.62;96.04;95522.31;4988490;28;20230;-80
2023/05/12 06:53:12;;;;;;;12.33;5.60;;;;;;;9.57;95.82;95515.00;5015520;28;20594;-77
2023/05/12 06:55:39;;;;;;;14.27;6.03;;;;;;;9.80;95.58;95517.53;4992607;28;20284;-76
2023/05/12 06:58:04;;;;;;;10.60;5.70;;;;;;;9.79;95.94;95515.91;4987072;28;20308;-79
2023/05/12 07:00:29;;;;;;;15.67;5.70;;;;;;;9.85;95.87;95513.38;5017891;28;20296;-78
2023/05/12 07:02:55;;;;;;;12.57;5.90;;;;;;;9.94;95.76;95517.53;5014953;28;20230;-78
2023/05/12 07:05:21;;;;;;;12.77;6.10;;;;;;;10.01;94.76;95520.22;5013968;28;20237;-78
2023/05/12 07:07:46;;;;;;;14.40;6.07;;;;;;;9.96;94.71;95518.16;4990242;28;20342;-78
2023/05/12 07:10:11;;;;;;;14.40;6.20;;;;;;;9.83;94.55;95517.19;5012340;28;20262;-79
2023/05/12 07:12:38;;;;;;;10.50;6.17;;;;;;;9.67;95.29;95515.56;4989510;28;20241;-79
2023/05/12 07:15:04;;;;;;;13.53;5.57;;;;;;;9.88;95.01;95509.59;4993114;28;20226;-77
2023/05/12 07:17:29;;;;;;;12.93;5.93;;;;;;;9.85;95.05;95512.56;4978851;28;20228;-78
2023/05/12 07:19:55;;;;;;;9.63;5.23;;;;;;;9.96;94.63;95523.38;5009082;28;20289;-78
2023/05/12 07:22:20;;;;;;;9.00;5.17;;;;;;;9.88;94.44;95526.13;4985986;28;20231;-77
2023/05/12 07:24:46;;;;;;;14.23;5.60;;;;;;;9.88;94.05;95520.06;4995357;28;20227;-77
2023/05/12 07:27:11;;;;;;;11.47;5.80;;;;;;;9.94;94.07;95527.19;4987304;28;20238;-78
2023/05/12 07:29:37;;;;;;;8.23;5.40;;;;;;;9.86;93.83;95519.44;4972701;28;20233;-79
2023/05/12 07:32:03;;;;;;;10.17;5.53;;;;;;;10.00;93.78;95521.25;4981875;28;20279;-78
2023/05/12 07:34:31;;;;;;;12.70;5.40;;;;;;;10.08;94.17;95521.13;4991513;28;20301;-78
2023/05/12 07:36:58;;;;;;;13.33;5.33;;;;;;;10.19;94.05;95531.19;4991921;28;20257;-79
2023/05/12 07:39:23;;;;;;;16.53;6.57;;;;;;;10.34;93.16;95518.88;5006044;28;20238;-77
2023/05/12 07:41:50;;;;;;;13.40;5.80;;;;;;;10.18;93.00;95534.78;4997323;28;20229;-79
2023/05/12 07:44:16;;;;;;;14.33;5.73;;;;;;;10.30;95.65;95522.03;4990472;28;20296;-78
2023/05/12 07:46:41;;;;;;;11.10;5.33;;;;;;;10.36;92.62;95527.38;4988004;28;20230;-78
2023/05/12 07:49:06;;;;;;;11.33;5.50;;;;;;;10.39;92.97;95521.75;4997629;28;20253;-78
2023/05/12 07:51:32;;;;;;;12.00;5.47;;;;;;;10.40;92.73;95527.81;4992189;28;20235;-78
2023/05/12 07:53:57;;;;;;;9.83;5.67;;;;;;;10.55;93.42;95521.56;4967079;28;20738;-78
2023/05/12 07:56:23;;;;;;;10.73;5.33;;;;;;;10.31;91.22;95529.72;4979764;28;21363;-78
2023/05/12 07:58:49;;;;;;;17.37;5.67;;;;;;;10.37;92.63;95518.50;4987440;28;20333;-78
2023/05/12 08:01:14;;;;;;;8.53;5.50;;;;;;;10.43;91.71;95517.78;4981616;28;20652;-79
2023/05/12 08:03:40;;;;;;;9.93;5.50;;;;;;;10.77;93.08;95523.19;4987390;28;20230;-78
2023/05/12 08:06:06;;;;;;;9.83;5.67;;;;;;;10.89;91.48;95523.50;4990445;28;20233;-79
2023/05/12 08:08:32;;;;;;;9.50;5.47;;;;;;;10.75;90.12;95506.84;4982813;28;20324;-78
2023/05/12 08:10:58;;;;;;;12.20;5.87;;;;;;;10.86;90.82;95518.66;4982495;28;20265;-77
2023/05/12 08:13:25;;;;;;;10.57;5.90;;;;;;;10.98;90.04;95517.16;4984963;28;20786;-78
2023/05/12 08:15:50;;;;;;;10.00;5.93;;;;;;;11.07;89.19;95525.69;4967029;28;20250;-78
2023/05/12 08:18:15;;;;;;;11.20;6.07;;;;;;;11.09;87.43;95528.94;5006176;28;20254;-78
2023/05/12 08:20:41;;;;;;;12.97;6.80;;;;;;;11.21;88.85;95522.19;4986495;28;20823;-78
2023/05/12 08:23:13;;;;;;;11.63;6.37;;;;;;;11.34;86.67;95522.31;4988754;28;20227;-79
2023/05/12 08:25:40;;;;;;;13.30;6.30;;;;;;;11.46;86.78;95518.19;4995015;28;20230;-79
2023/05/12 08:28:05;;;;;;;12.30;5.80;;;;;;;11.19;84.74;95529.44;4994814;28;20796;-78
2023/05/12 08:30:31;;;;;;;8.00;5.60;;;;;;;11.29;85.66;95522.91;4988147;28;20237;-78
2023/05/12 08:32:56;;;;;;;9.67;5.60;;;;;;;11.55;86.21;95522.28;5006641;28;20831;-78
2023/05/12 08:35:23;;;;;;;10.30;5.30;;;;;;;11.44;83.64;95522.78;5005492;28;20732;-78
2023/05/12 08:37:48;;;;;;;10.93;5.60;;;;;;;11.26;85.41;95525.06;4978280;28;20262;-78
2023/05/12 08:40:16;;;;;;;12.40;5.83;;;;;;;11.50;84.87;95528.09;5009320;28;20230;-79
2023/05/12 08:42:43;;;;;;;12.10;5.60;;;;;;;11.59;85.36;95520.91;4977943;28;20222;-78
2023/05/12 08:45:12;;;;;;;9.97;5.60;;;;;;;11.63;85.04;95529.22;4998637;28;20645;-79
2023/05/12 08:47:38;;;;;;;10.80;5.40;;;;;;;11.79;84.60;95534.19;4976958;28;20242;-79
2023/05/12 08:50:03;;;;;;;9.10;5.17;;;;;;;11.77;83.25;95523.09;4988270;28;20223;-77
2023/05/12 08:52:32;;;;;;;9.10;5.67;;;;;;;11.73;82.59;95520.03;4989195;28;20231;-78
2023/05/12 08:54:58;;;;;;;8.93;5.60;;;;;;;11.94;84.35;95512.06;4981651;28;20258;-78
2023/05/12 08:57:24;;;;;;;9.03;5.30;;;;;;;12.01;81.86;95517.38;4980145;28;20227;-79
2023/05/12 08:59:54;;;;;;;14.50;5.50;;;;;;;11.90;82.12;95523.16;4972544;28;20230;-80
2023/05/12 09:02:23;;;;;;;9.03;5.30;;;;;;;11.94;81.27;95517.31;4981425;28;20258;-79
2023/05/12 09:04:51;;;;;;;9.20;4.80;;;;;;;11.68;80.51;95525.03;4999282;28;20233;-78
2023/05/12 09:07:21;;;;;;;9.43;4.77;;;;;;;11.84;81.13;95516.88;4989006;28;20245;-76
2023/05/12 09:09:48;;;;;;;7.17;5.33;;;;;;;11.84;80.50;95519.50;4976466;28;20301;-79
2023/05/12 09:12:15;;;;;;;8.57;5.00;;;;;;;11.84;80.53;95508.19;4995556;28;20752;-79
2023/05/12 09:14:41;;;;;;;7.27;4.50;;;;;;;11.87;80.73;95502.56;4985751;28;20231;-79
2023/05/12 09:17:06;;;;;;;9.23;4.43;;;;;;;11.83;79.33;95504.75;4977090;28;20704;-79
2023/05/12 09:19:33;;;;;;;11.97;4.27;;;;;;;11.91;79.04;95499.38;4993521;28;20241;-80
2023/05/12 09:21:59;;;;;;;9.70;4.70;;;;;;;12.18;80.88;95499.50;5001894;28;20227;-80
2023/05/12 09:24:35;;;;;;;8.23;4.50;;;;;;;12.15;79.00;95504.16;4978542;28;20234;-78
2023/05/12 09:27:00;;;;;;;6.53;4.23;;;;;;;12.15;79.31;95500.69;4976588;28;20219;-78
2023/05/12 09:29:26;;;;;;;12.07;4.50;;;;;;;12.04;79.17;95498.59;4989380;28;20235;-78
2023/05/12 09:31:52;;;;;;;7.27;4.40;;;;;;;12.27;79.45;95501.78;4988453;28;20254;-77
2023/05/12 09:34:19;;;;;;;10.00;4.70;;;;;;;12.18;78.06;95494.25;4962783;28;20265;-79
2023/05/12 09:36:53;;;;;;;7.87;4.40;;;;;;;12.08;78.02;95487.53;4976076;28;20238;-78
2023/05/12 09:39:20;;;;;;;13.80;4.87;;;;;;;12.22;80.28;95493.66;4965484;28;20243;-78
2023/05/12 09:41:45;;;;;;;8.07;4.00;;;;;;;12.01;78.10;95491.94;4990114;28;20230;-78
2023/05/12 09:44:13;;;;;;;8.93;4.40;;;;;;;12.20;78.82;95492.25;5003424;28;20289;-80
2023/05/12 09:46:39;;;;;;;9.03;4.40;;;;;;;12.46;79.54;95487.09;4988538;28;20289;-78
2023/05/12 09:49:05;;;;;;;10.47;5.20;;;;;;;12.57;79.35;95497.03;4974581;28;20243;-77
2023/05/12 09:51:31;;;;;;;13.67;6.23;;;;;;;12.60;81.29;95489.56;4989792;28;20231;-78
2023/05/12 09:53:59;;;;;;;11.90;7.20;;;;;;;12.62;80.42;95497.25;5000116;28;20322;-78
2023/05/12 09:56:28;;;;;;;12.30;6.87;;;;;;;12.65;80.97;95491.59;4984647;28;20231;-79
2023/05/12 09:58:55;;;;;;;11.17;6.73;;;;;;;12.72;79.89;95495.88;4979757;28;20231;-78
2023/05/12 10:01:21;;;;;;;13.63;6.93;;;;;;;12.69;79.27;95490.19;4961225;28;20692;-78
2023/05/12 10:03:51;;;;;;;12.37;6.97;;;;;;;12.77;80.55;95487.38;4974503;28;20326;-79
2023/05/12 10:06:29;;;;;;;18.53;7.10;;;;;;;12.96;78.49;95486.63;4984097;28;20750;-77
2023/05/12 10:09:15;;;;;;;10.93;6.60;;;;;;;12.95;79.25;95490.25;4993287;28;20266;-79
2023/05/12 10:11:41;;;;;;;10.23;6.03;;;;;;;12.75;79.02;95490.19;4983738;28;20692;-77
2023/05/12 10:14:08;;;;;;;8.97;5.70;;;;;;;12.97;76.32;95482.97;4943158;28;20295;-78
2023/05/12 10:16:34;;;;;;;11.13;6.47;;;;;;;12.87;78.75;95479.94;4962228;28;20815;-79
2023/05/12 10:19:00;;;;;;;13.00;7.00;;;;;;;13.12;77.67;95474.94;4954457;28;20273;-80
2023/05/12 10:21:25;;;;;;;12.73;6.27;;;;;;;13.17;76.32;95475.94;4979176;28;20246;-79
2023/05/12 10:23:51;;;;;;;10.97;5.97;;;;;;;13.31;77.20;95479.38;4962873;28;20677;-78
2023/05/12 10:26:16;;;;;;;12.20;5.90;;;;;;;13.30;77.67;95475.16;4945863;28;20236;-76
2023/05/12 10:28:43;;;;;;;10.30;5.43;;;;;;;13.34;75.25;95481.63;4967271;28;20227;-78
2023/05/12 10:31:08;;;;;;;9.60;5.13;;;;;;;13.50;76.56;95476.75;4977841;28;20649;-76
2023/05/12 10:33:34;;;;;;;8.53;5.50;;;;;;;13.68;75.26;95477.97;4944054;28;20236;-77
2023/05/12 10:35:59;;;;;;;8.90;5.37;;;;;;;13.69;75.07;95469.84;4977442;28;20220;-77
2023/05/12 10:38:25;;;;;;;9.70;4.70;;;;;;;13.87;75.71;95461.31;4957052;28;20243;-78
2023/05/12 10:41:01;;;;;;;8.67;5.70;;;;;;;14.08;74.88;95466.31;4960339;28;20612;-76
2023/05/12 10:43:28;;;;;;;9.67;5.50;;;;;;;14.08;73.33;95466.31;4961948;28;20286;-79
2023/05/12 10:46:16;;;;;;;9.37;5.07;;;;;;;14.18;72.87;95453.53;4984709;28;20227;-77
2023/05/12 10:49:08;;;;;;;9.47;5.20;;;;;;;14.36;72.05;95460.78;4985639;28;20247;-78
2023/05/12 10:51:37;;;;;;;8.13;4.90;;;;;;;14.37;72.18;95459.75;4973288;28;20326;-78
2023/05/12 10:54:06;;;;;;;10.20;4.77;;;;;;;14.41;69.81;95453.06;4974754;28;20322;-80
2023/05/12 10:56:37;;;;;;;8.10;4.37;;;;;;;14.21;71.57;95460.22;4961768;28;20302;-78
2023/05/12 10:59:25;;;;;;;8.57;4.40;;;;;;;14.19;70.31;95457.75;4980803;28;20237;-76
2023/05/12 11:02:13;;;;;;;13.27;4.60;;;;;;;14.55;69.98;95463.31;4980378;28;20318;-79
2023/05/12 11:04:46;;;;;;;7.17;4.63;;;;;;;14.58;69.16;95470.00;4958698;28;20235;-78
2023/05/12 11:07:12;;;;;;;8.23;5.00;;;;;;;14.84;68.87;95460.13;4984668;28;20240;-78
2023/05/12 11:09:40;;;;;;;9.73;4.50;;;;;;;14.93;67.32;95467.75;4981627;28;20239;-80
2023/05/12 11:12:06;;;;;;;8.67;4.50;;;;;;;14.62;67.21;95458.81;4966736;28;20287;-78
2023/05/12 11:14:33;;;;;;;9.53;4.90;;;;;;;14.94;69.22;95469.38;4976162;28;20244;-77
2023/05/12 11:16:58;;;;;;;8.20;5.00;;;;;;;15.14;68.66;95476.13;4977186;28;20235;-79
2023/05/12 11:19:24;;;;;;;10.27;4.80;;;;;;;15.04;68.24;95480.28;4984115;28;20696;-79
2023/05/12 11:21:49;;;;;;;9.13;4.80;;;;;;;14.96;67.55;95468.16;4942847;28;20697;-80
2023/05/12 11:24:15;;;;;;;10.57;4.10;;;;;;;14.71;66.92;95473.34;4971956;28;20773;-79
2023/05/12 11:26:40;;;;;;;9.83;4.30;;;;;;;14.92;65.80;95471.44;4959824;28;20694;-80
2023/05/12 11:29:06;;;;;;;9.93;4.33;;;;;;;14.79;66.32;95478.38;4974046;28;20244;-78